Time;durP1;ratioP1;P1;durP2;ratioP2;P2;SDS_P1;SDS_P2;PMS_P1;PMS_P2;Temp;Humidity;BMP_temperature;BMP_pressure;BME280_temperature;BME280_humidity;BME280_pressure;Samples;Min_cycle;Max_cycle;Signal;HPM_P1;HPM_P2
2023/04/11 00:01:48;;;;;;;42.03;25.55;;;3.80;99.90;;;;;;4958970;28;20038;-85
2023/04/11 00:04:15;;;;;;;41.58;25.23;;;3.80;99.90;;;;;;4975605;28;20023;-86
2023/04/11 00:06:41;;;;;;;47.33;27.40;;;3.80;99.90;;;;;;4958794;28;20030;-85
2023/04/11 00:09:10;;;;;;;65.90;34.47;;;3.90;99.90;;;;;;4958093;28;20037;-85
2023/04/11 00:11:36;;;;;;;68.97;35.85;;;3.90;99.90;;;;;;4958044;28;20026;-85
2023/04/11 00:14:04;;;;;;;69.93;33.50;;;4.00;99.90;;;;;;4968060;28;20022;-85
2023/04/11 00:16:32;;;;;;;112.18;38.20;;;4.00;99.90;;;;;;4977216;28;20511;-85
2023/04/11 00:18:58;;;;;;;142.43;38.80;;;4.00;99.90;;;;;;4977048;28;20042;-85
2023/04/11 00:21:24;;;;;;;133.48;37.97;;;4.00;99.90;;;;;;4977088;28;20027;-84
2023/04/11 00:23:51;;;;;;;117.20;39.00;;;3.90;99.90;;;;;;4977106;28;20022;-85
2023/04/11 00:26:17;;;;;;;149.52;46.00;;;3.90;99.90;;;;;;4976921;28;20057;-86
2023/04/11 00:28:43;;;;;;;100.68;39.38;;;3.80;99.90;;;;;;4977256;28;20026;-85
2023/04/11 00:31:09;;;;;;;225.82;53.42;;;3.80;99.90;;;;;;4994484;28;20029;-85
2023/04/11 00:33:35;;;;;;;119.60;44.38;;;3.70;99.90;;;;;;4976937;28;20396;-85
2023/04/11 00:36:01;;;;;;;120.40;47.15;;;3.80;99.90;;;;;;4994286;28;20035;-85
2023/04/11 00:38:27;;;;;;;95.80;39.70;;;3.90;99.90;;;;;;4994145;28;20076;-85
2023/04/11 00:40:53;;;;;;;102.25;40.58;;;3.90;99.90;;;;;;4994624;28;20023;-86
2023/04/11 00:43:18;;;;;;;107.28;41.42;;;3.90;99.90;;;;;;4977189;28;20482;-87
2023/04/11 00:45:44;;;;;;;108.68;38.00;;;4.00;99.90;;;;;;4976424;28;20022;-86
2023/04/11 00:48:10;;;;;;;155.35;40.50;;;4.00;99.90;;;;;;4976881;28;20029;-85
2023/04/11 00:50:39;;;;;;;142.82;41.00;;;4.00;99.90;;;;;;4976781;28;20022;-85
2023/04/11 00:53:05;;;;;;;94.85;29.48;;;4.00;99.90;;;;;;4976838;28;20042;-86
2023/04/11 00:55:31;;;;;;;66.05;22.23;;;4.10;99.90;;;;;;4976357;28;20539;-84
2023/04/11 00:57:57;;;;;;;75.10;22.38;;;4.10;99.90;;;;;;4994227;28;20603;-85
2023/04/11 01:00:23;;;;;;;72.80;23.25;;;4.10;99.90;;;;;;4976393;28;20038;-86
2023/04/11 01:02:49;;;;;;;49.40;22.35;;;4.00;99.90;;;;;;4976922;28;20066;-85
2023/04/11 01:05:16;;;;;;;59.40;24.13;;;4.00;99.90;;;;;;4976338;28;20114;-85
2023/04/11 01:07:45;;;;;;;97.80;26.98;;;4.00;99.90;;;;;;4976825;28;20488;-85
2023/04/11 01:10:12;;;;;;;87.00;25.58;;;3.90;99.90;;;;;;4993872;28;20026;-85
2023/04/11 01:12:39;;;;;;;78.43;25.90;;;3.70;99.90;;;;;;4976681;28;20031;-86
2023/04/11 01:15:05;;;;;;;58.80;22.13;;;3.70;99.90;;;;;;4976388;28;20041;-85
2023/04/11 01:17:31;;;;;;;83.70;22.80;;;3.70;99.90;;;;;;4994057;28;20022;-85
2023/04/11 01:19:58;;;;;;;67.40;23.75;;;3.70;99.90;;;;;;4993594;28;20053;-86
2023/04/11 01:22:25;;;;;;;72.65;23.35;;;3.60;99.90;;;;;;4976198;28;20034;-86
2023/04/11 01:24:51;;;;;;;73.85;24.80;;;3.60;99.90;;;;;;4975821;28;20026;-85
2023/04/11 01:27:17;;;;;;;64.85;23.00;;;3.60;99.90;;;;;;4976689;28;20106;-85
2023/04/11 01:29:42;;;;;;;107.60;26.17;;;3.50;99.90;;;;;;4993408;28;20465;-85
2023/04/11 01:32:08;;;;;;;90.30;23.67;;;3.40;99.90;;;;;;4976483;28;20030;-86
2023/04/11 01:34:36;;;;;;;91.18;24.65;;;3.30;99.90;;;;;;4993530;28;20023;-85
2023/04/11 01:37:02;;;;;;;92.15;22.60;;;3.10;99.90;;;;;;4975578;28;20038;-85
2023/04/11 01:39:28;;;;;;;109.72;22.05;;;3.00;99.90;;;;;;4976090;28;20038;-86
2023/04/11 01:41:55;;;;;;;107.47;22.83;;;2.90;99.90;;;;;;4993559;28;20026;-86
2023/04/11 01:44:21;;;;;;;81.30;21.05;;;2.70;99.90;;;;;;4993304;28;20089;-85
2023/04/11 01:46:47;;;;;;;60.40;19.85;;;2.60;99.90;;;;;;4993790;28;20514;-85
2023/04/11 01:49:16;;;;;;;94.57;21.60;;;2.60;99.90;;;;;;4976313;28;20019;-85
2023/04/11 01:51:42;;;;;;;69.30;20.20;;;2.50;99.90;;;;;;4972787;28;20047;-85
2023/04/11 01:54:08;;;;;;;68.70;19.10;;;2.50;99.90;;;;;;4974023;28;20037;-84
2023/04/11 01:56:34;;;;;;;46.53;18.63;;;2.50;99.90;;;;;;4956924;28;20038;-85
2023/04/11 01:59:00;;;;;;;42.40;19.15;;;2.50;99.90;;;;;;4973760;28;20034;-85
2023/04/11 02:01:26;;;;;;;39.58;18.75;;;2.50;99.90;;;;;;4973605;28;20023;-84
2023/04/11 02:03:52;;;;;;;48.63;18.98;;;2.50;99.90;;;;;;4973989;28;20038;-86
2023/04/11 02:06:17;;;;;;;36.33;17.55;;;2.50;99.90;;;;;;4974118;28;20473;-85
2023/04/11 02:08:43;;;;;;;34.53;18.17;;;2.50;99.90;;;;;;4956644;28;20564;-86
2023/04/11 02:11:09;;;;;;;51.08;21.50;;;2.60;99.90;;;;;;4956503;28;20027;-85
2023/04/11 02:13:35;;;;;;;66.38;20.55;;;2.60;99.90;;;;;;4974226;28;20063;-85
2023/04/11 02:16:08;;;;;;;71.13;18.92;;;2.70;99.90;;;;;;4956478;28;20039;-85
2023/04/11 02:18:35;;;;;;;43.03;18.30;;;2.60;99.90;;;;;;4973676;28;20106;-85
2023/04/11 02:21:01;;;;;;;29.65;16.48;;;2.60;99.90;;;;;;4974207;28;20437;-85
2023/04/11 02:23:27;;;;;;;40.28;18.17;;;2.70;99.90;;;;;;4956491;28;20085;-84
2023/04/11 02:25:53;;;;;;;39.85;19.33;;;2.70;99.90;;;;;;4956748;28;20035;-85
2023/04/11 02:28:19;;;;;;;37.38;17.85;;;2.70;99.90;;;;;;4956838;28;20026;-85
2023/04/11 02:30:45;;;;;;;30.60;15.32;;;2.70;99.90;;;;;;4956685;28;20113;-84
2023/04/11 02:33:11;;;;;;;31.25;17.38;;;2.70;99.90;;;;;;4956418;28;20130;-85
2023/04/11 02:35:37;;;;;;;38.92;20.25;;;2.70;99.90;;;;;;4973602;28;20046;-85
2023/04/11 02:38:03;;;;;;;56.88;28.55;;;2.80;99.90;;;;;;4973974;28;20354;-85
2023/04/11 02:40:29;;;;;;;53.03;27.00;;;2.70;99.90;;;;;;4956439;28;20069;-85
2023/04/11 02:42:56;;;;;;;59.53;29.27;;;2.80;99.90;;;;;;4973697;28;20489;-85
2023/04/11 02:45:22;;;;;;;63.38;26.70;;;2.80;99.90;;;;;;4956607;28;20437;-85
2023/04/11 02:47:47;;;;;;;53.42;22.98;;;2.80;99.90;;;;;;4957638;28;20065;-85
2023/04/11 02:50:13;;;;;;;52.92;19.58;;;2.80;99.90;;;;;;4959864;28;20066;-84
2023/04/11 02:52:41;;;;;;;54.38;17.33;;;2.70;99.90;;;;;;4976762;28;20046;-85
2023/04/11 02:55:07;;;;;;;61.33;18.05;;;2.70;99.90;;;;;;4959498;28;20039;-85
2023/04/11 02:57:33;;;;;;;48.35;16.75;;;2.70;99.90;;;;;;4959412;28;20111;-85
2023/04/11 02:59:59;;;;;;;43.78;17.00;;;2.70;99.90;;;;;;4976737;28;20116;-85
2023/04/11 03:02:24;;;;;;;64.10;20.88;;;2.70;99.90;;;;;;4976935;28;20055;-85
2023/04/11 03:04:50;;;;;;;64.38;21.38;;;2.60;99.90;;;;;;4977073;28;20106;-85
2023/04/11 03:07:16;;;;;;;42.47;17.52;;;2.50;99.90;;;;;;4977121;28;20026;-85
2023/04/11 03:09:42;;;;;;;53.75;17.45;;;2.50;99.90;;;;;;4976906;28;20046;-85
2023/04/11 03:12:07;;;;;;;70.82;19.10;;;2.40;99.90;;;;;;4977092;28;20469;-85
2023/04/11 03:14:33;;;;;;;65.70;18.83;;;2.30;99.90;;;;;;4959400;28;20035;-85
2023/04/11 03:16:59;;;;;;;76.05;19.83;;;2.30;99.90;;;;;;4976541;28;20037;-85
2023/04/11 03:19:24;;;;;;;66.72;19.60;;;2.30;99.90;;;;;;4959568;28;20019;-85
2023/04/11 03:21:50;;;;;;;48.00;17.80;;;2.40;99.90;;;;;;4959496;28;20027;-85
2023/04/11 03:24:16;;;;;;;35.97;16.65;;;2.50;99.90;;;;;;4976744;28;20057;-85
2023/04/11 03:26:43;;;;;;;54.47;20.05;;;2.50;99.90;;;;;;4959020;28;20034;-85
2023/04/11 03:29:09;;;;;;;36.67;19.15;;;2.60;99.90;;;;;;4976421;28;20162;-85
2023/04/11 03:31:35;;;;;;;36.95;18.85;;;2.60;99.90;;;;;;4976274;28;20074;-84
2023/04/11 03:34:00;;;;;;;54.88;19.67;;;2.70;99.90;;;;;;4959576;28;20023;-84
2023/04/11 03:36:26;;;;;;;61.00;21.95;;;2.70;99.90;;;;;;4958771;28;20117;-84
2023/04/11 03:38:52;;;;;;;80.15;21.92;;;2.70;99.90;;;;;;4976198;28;20180;-85
2023/04/11 03:41:20;;;;;;;45.55;18.00;;;2.60;99.90;;;;;;4975849;28;20037;-85
2023/04/11 03:43:46;;;;;;;54.63;19.13;;;2.60;99.90;;;;;;4958860;28;20023;-85
2023/04/11 03:46:14;;;;;;;70.78;20.70;;;2.50;99.90;;;;;;4976355;28;20105;-85
2023/04/11 03:48:40;;;;;;;88.25;24.23;;;2.40;99.90;;;;;;4958814;28;20022;-85
2023/04/11 03:51:06;;;;;;;57.10;21.25;;;2.30;99.90;;;;;;4975303;28;20102;-84
2023/04/11 03:53:32;;;;;;;45.78;22.23;;;2.30;99.90;;;;;;4975838;28;20111;-84
2023/04/11 03:55:58;;;;;;;47.00;19.02;;;2.30;99.90;;;;;;4958231;28;20037;-85
2023/04/11 03:58:23;;;;;;;52.28;21.13;;;2.30;99.90;;;;;;4958461;28;20026;-85
2023/04/11 04:00:49;;;;;;;60.35;25.25;;;2.30;99.90;;;;;;4958270;28;20031;-85
2023/04/11 04:03:15;;;;;;;51.85;23.52;;;2.30;99.90;;;;;;4958641;28;20037;-84
2023/04/11 04:05:41;;;;;;;61.42;23.42;;;2.30;99.90;;;;;;4975861;28;20023;-85
2023/04/11 04:08:06;;;;;;;63.65;19.38;;;2.40;99.90;;;;;;4958753;28;20023;-84
2023/04/11 04:10:32;;;;;;;50.13;17.55;;;2.40;99.90;;;;;;4961058;28;20023;-85
2023/04/11 04:12:58;;;;;;;55.75;16.42;;;2.40;99.90;;;;;;4977656;28;20034;-84
2023/04/11 04:15:24;;;;;;;73.32;22.48;;;2.40;99.90;;;;;;4994607;28;20123;-85
2023/04/11 04:17:50;;;;;;;92.63;26.27;;;2.40;99.90;;;;;;4994986;28;20079;-85
2023/04/11 04:20:16;;;;;;;62.83;21.15;;;2.30;99.90;;;;;;4994571;28;20030;-84
2023/04/11 04:22:42;;;;;;;46.95;21.77;;;2.30;99.90;;;;;;4977557;28;20113;-85
2023/04/11 04:25:11;;;;;;;59.50;18.60;;;2.40;99.90;;;;;;4977583;28;20027;-85
2023/04/11 04:27:42;;;;;;;49.25;17.05;;;2.40;99.90;;;;;;4976796;28;20026;-85
2023/04/11 04:30:14;;;;;;;58.85;16.75;;;2.50;99.90;;;;;;4977532;28;20404;-85
2023/04/11 04:32:43;;;;;;;48.63;15.30;;;2.50;99.90;;;;;;4977261;28;20038;-85
2023/04/11 04:35:10;;;;;;;39.80;16.92;;;2.50;99.90;;;;;;4994374;28;20068;-85
2023/04/11 04:37:44;;;;;;;45.20;17.77;;;2.50;99.90;;;;;;4977192;28;20073;-84
2023/04/11 04:40:12;;;;;;;33.53;16.80;;;2.50;99.90;;;;;;4994255;28;20050;-86
2023/04/11 04:42:40;;;;;;;39.70;19.65;;;2.50;99.90;;;;;;4994153;28;20511;-85
2023/04/11 04:45:07;;;;;;;42.25;20.13;;;2.60;99.90;;;;;;4977100;28;20034;-85
2023/04/11 04:47:34;;;;;;;38.78;18.58;;;2.60;99.90;;;;;;4976201;28;20027;-85
2023/04/11 04:50:00;;;;;;;33.60;17.00;;;2.60;99.90;;;;;;4994605;28;20097;-85
2023/04/11 04:52:27;;;;;;;32.92;18.25;;;2.70;99.90;;;;;;4976245;28;20073;-85
2023/04/11 04:54:59;;;;;;;34.33;16.95;;;2.70;99.90;;;;;;4993774;28;20126;-85
2023/04/11 04:57:26;;;;;;;32.70;16.53;;;2.70;99.90;;;;;;4975945;28;20037;-84
2023/04/11 04:59:52;;;;;;;33.65;18.00;;;2.70;99.90;;;;;;4977070;28;20465;-86
2023/04/11 05:02:17;;;;;;;30.77;17.38;;;2.80;99.90;;;;;;4976488;28;20118;-86
2023/04/11 05:04:47;;;;;;;33.25;18.23;;;2.80;99.90;;;;;;4993706;28;20097;-86
2023/04/11 05:07:13;;;;;;;38.95;20.85;;;2.90;99.90;;;;;;4976382;28;20030;-84
2023/04/11 05:09:39;;;;;;;32.90;19.60;;;3.00;99.90;;;;;;4993806;28;20092;-85
2023/04/11 05:12:05;;;;;;;36.70;19.25;;;3.00;99.90;;;;;;4992886;28;20026;-84
2023/04/11 05:14:31;;;;;;;33.53;19.15;;;3.10;99.90;;;;;;4976460;28;20121;-85
2023/04/11 05:16:59;;;;;;;36.45;21.42;;;3.30;99.90;;;;;;4992969;28;20034;-85
2023/04/11 05:19:26;;;;;;;44.38;21.55;;;3.40;99.90;;;;;;4993859;28;20031;-85
2023/04/11 05:21:53;;;;;;;41.95;21.33;;;3.60;99.90;;;;;;4993608;28;20023;-85
2023/04/11 05:24:19;;;;;;;39.95;20.77;;;3.80;99.90;;;;;;4968516;28;20030;-85
2023/04/11 05:26:45;;;;;;;36.47;20.73;;;4.00;99.90;;;;;;4974908;28;20105;-85
2023/04/11 05:29:11;;;;;;;40.88;21.77;;;4.10;99.90;;;;;;4956926;28;20122;-85
2023/04/11 05:31:37;;;;;;;42.90;22.02;;;4.30;99.90;;;;;;4957109;28;20528;-85
2023/04/11 05:34:02;;;;;;;41.95;23.33;;;4.40;99.90;;;;;;4957780;28;20026;-86
2023/04/11 05:36:29;;;;;;;37.78;21.40;;;4.70;99.90;;;;;;4956609;28;20039;-86
2023/04/11 05:39:05;;;;;;;41.15;23.85;;;4.80;99.90;;;;;;4956964;28;20113;-85
2023/04/11 05:41:31;;;;;;;37.40;20.60;;;5.00;99.90;;;;;;4974093;28;20469;-85
2023/04/11 05:43:56;;;;;;;33.92;19.98;;;5.20;99.90;;;;;;4963356;28;20051;-85
2023/04/11 05:46:22;;;;;;;37.25;22.15;;;5.50;99.90;;;;;;4966562;28;20022;-85
2023/04/11 05:48:48;;;;;;;33.35;21.23;;;5.70;99.90;;;;;;4967479;28;20018;-85
2023/04/11 05:51:14;;;;;;;32.97;20.85;;;5.80;99.90;;;;;;4980501;28;20026;-85
2023/04/11 05:53:40;;;;;;;35.40;19.48;;;6.00;99.90;;;;;;4956420;28;20043;-85
2023/04/11 05:56:06;;;;;;;32.63;18.67;;;6.20;99.90;;;;;;4977114;28;20053;-85
2023/04/11 05:58:34;;;;;;;33.80;20.02;;;6.40;99.90;;;;;;4984153;28;20049;-85
2023/04/11 06:00:59;;;;;;;27.05;18.27;;;6.60;99.90;;;;;;4979880;28;20030;-85
2023/04/11 06:03:26;;;;;;;30.52;19.27;;;6.70;99.90;;;;;;4983997;28;20030;-85
2023/04/11 06:05:52;;;;;;;30.55;20.65;;;6.90;99.90;;;;;;4974765;28;20049;-85
2023/04/11 06:08:18;;;;;;;24.52;17.52;;;7.10;99.90;;;;;;4993106;28;20081;-86
2023/04/11 06:10:44;;;;;;;26.20;16.27;;;7.30;99.90;;;;;;4975976;28;20022;-85
2023/04/11 06:13:10;;;;;;;24.17;16.85;;;7.40;99.90;;;;;;4976089;28;20053;-85
2023/04/11 06:15:38;;;;;;;24.20;17.02;;;7.60;99.90;;;;;;4976173;28;20484;-85
2023/04/11 06:18:03;;;;;;;23.08;16.23;;;7.80;99.90;;;;;;4979748;28;20019;-86
2023/04/11 06:20:30;;;;;;;21.85;15.13;;;7.90;99.90;;;;;;4979678;28;20544;-85
2023/04/11 06:22:56;;;;;;;26.58;16.77;;;8.10;99.90;;;;;;4978511;28;20027;-86
2023/04/11 06:25:24;;;;;;;21.85;14.68;;;8.30;99.90;;;;;;4977749;28;20033;-87
2023/04/11 06:27:50;;;;;;;19.25;13.55;;;8.50;99.90;;;;;;4976575;28;20085;-86
2023/04/11 06:30:19;;;;;;;20.67;14.68;;;8.70;99.90;;;;;;4977714;28;20023;-85
2023/04/11 06:32:45;;;;;;;16.75;13.30;;;8.90;99.90;;;;;;4960140;28;20027;-86
2023/04/11 06:35:11;;;;;;;23.25;13.57;;;9.00;99.90;;;;;;4968664;28;20047;-86
2023/04/11 06:37:37;;;;;;;16.63;11.90;;;9.20;99.90;;;;;;4996283;28;20479;-87
2023/04/11 06:40:05;;;;;;;18.45;11.27;;;9.40;99.90;;;;;;4979430;28;20033;-87
2023/04/11 06:42:31;;;;;;;17.65;11.93;;;9.50;99.90;;;;;;4969715;28;20491;-86
2023/04/11 06:44:57;;;;;;;17.90;12.43;;;9.60;99.90;;;;;;4963260;28;20039;-86
2023/04/11 06:47:23;;;;;;;15.35;12.45;;;9.80;99.90;;;;;;4985420;28;20531;-87
2023/04/11 06:49:50;;;;;;;14.18;11.00;;;9.90;99.90;;;;;;4969972;28;20041;-87
2023/04/11 06:52:16;;;;;;;18.05;11.27;;;10.10;99.90;;;;;;4996158;28;20057;-87
2023/04/11 06:54:41;;;;;;;14.43;10.73;;;10.20;99.90;;;;;;4993698;28;20030;-87
2023/04/11 06:57:09;;;;;;;15.05;11.38;;;10.30;99.90;;;;;;4984250;28;20491;-87
2023/04/11 06:59:35;;;;;;;15.38;11.00;;;10.50;99.90;;;;;;4994846;28;20033;-87
2023/04/11 07:02:01;;;;;;;16.23;11.30;;;10.60;99.90;;;;;;4978922;28;20026;-87
2023/04/11 07:04:26;;;;;;;17.08;12.23;;;10.80;99.90;;;;;;4992346;28;20027;-86
2023/04/11 07:06:52;;;;;;;15.13;10.20;;;11.00;99.90;;;;;;4960714;28;20025;-88
2023/04/11 07:09:18;;;;;;;14.70;9.88;;;11.10;99.90;;;;;;4961964;28;20630;-86
2023/04/11 07:11:45;;;;;;;17.00;10.13;;;11.20;99.90;;;;;;4983130;28;20027;-86
2023/04/11 07:14:13;;;;;;;12.70;9.55;;;11.10;99.90;;;;;;4975245;28;20427;-86
2023/04/11 07:16:39;;;;;;;12.35;9.80;;;11.10;99.90;;;;;;4965914;28;20031;-87
2023/04/11 07:19:05;;;;;;;15.15;10.35;;;11.10;99.90;;;;;;4964169;28;20357;-86
2023/04/11 07:21:32;;;;;;;14.40;9.82;;;11.20;99.90;;;;;;4965571;28;20507;-86
2023/04/11 07:23:59;;;;;;;13.00;9.80;;;11.30;99.90;;;;;;4970983;28;20030;-86
2023/04/11 07:26:30;;;;;;;12.48;9.10;;;11.40;99.90;;;;;;4968507;28;20035;-87
2023/04/11 07:28:56;;;;;;;12.10;8.82;;;11.40;97.60;;;;;;4971897;28;20026;-86
2023/04/11 07:31:23;;;;;;;14.00;9.30;;;11.40;94.80;;;;;;4966477;28;20500;-86
2023/04/11 07:33:50;;;;;;;15.65;9.52;;;11.50;94.80;;;;;;4957990;28;20027;-86
2023/04/11 07:36:16;;;;;;;13.88;9.55;;;11.50;94.40;;;;;;4966521;28;20374;-86
2023/04/11 07:38:42;;;;;;;13.80;8.55;;;11.60;94.20;;;;;;4966619;28;20018;-86
2023/04/11 07:41:08;;;;;;;14.88;9.45;;;11.70;92.80;;;;;;4963037;28;20057;-85
2023/04/11 07:43:35;;;;;;;13.60;9.68;;;11.60;89.70;;;;;;4993595;28;20022;-86
2023/04/11 07:46:01;;;;;;;15.27;9.95;;;11.60;88.80;;;;;;4984070;28;20154;-86
2023/04/11 07:48:31;;;;;;;14.05;9.13;;;11.80;87.60;;;;;;4982881;28;20100;-83
2023/04/11 07:50:56;;;;;;;12.48;8.20;;;11.80;86.50;;;;;;4974523;28;20030;-85
2023/04/11 07:53:22;;;;;;;13.15;11.00;;;11.90;88.50;;;;;;4975798;28;20063;-85
2023/04/11 07:55:48;;;;;;;16.02;11.82;;;12.00;88.20;;;;;;4986997;28;20119;-86
2023/04/11 07:58:14;;;;;;;28.65;14.73;;;12.20;87.20;;;;;;4958718;28;20027;-85
2023/04/11 08:00:39;;;;;;;23.50;13.23;;;12.30;86.60;;;;;;4967040;28;20031;-85
2023/04/11 08:03:07;;;;;;;21.60;12.85;;;12.30;83.40;;;;;;4962872;28;20039;-84
2023/04/11 08:05:34;;;;;;;10.02;7.68;;;12.50;83.00;;;;;;4970116;28;20030;-85
2023/04/11 08:08:01;;;;;;;12.02;8.32;;;12.50;81.10;;;;;;4968130;28;21024;-86
2023/04/11 08:10:27;;;;;;;10.45;6.93;;;12.70;81.70;;;;;;4968332;28;20028;-85
2023/04/11 08:12:53;;;;;;;9.27;6.80;;;12.80;79.00;;;;;;4970863;28;20026;-86
2023/04/11 08:15:19;;;;;;;8.25;6.40;;;12.70;80.10;;;;;;4989637;28;20045;-85
2023/04/11 08:17:45;;;;;;;11.40;6.72;;;12.70;78.40;;;;;;4971437;28;20054;-85
2023/04/11 08:20:12;;;;;;;10.93;6.63;;;12.70;79.00;;;;;;4972703;28;20066;-85
2023/04/11 08:23:04;;;;;;;7.18;5.55;;;12.70;77.70;;;;;;4989273;28;20140;-84
2023/04/11 08:25:31;;;;;;;8.67;6.23;;;12.70;76.80;;;;;;4982711;28;20023;-86
2023/04/11 08:27:56;;;;;;;7.78;5.15;;;12.70;76.90;;;;;;4984152;28;20671;-86
2023/04/11 08:30:22;;;;;;;6.03;5.43;;;12.60;76.00;;;;;;4968577;28;20027;-85
2023/04/11 08:32:48;;;;;;;29.25;7.22;;;12.60;75.40;;;;;;4968207;28;20059;-86
2023/04/11 08:35:14;;;;;;;8.48;4.82;;;12.70;78.40;;;;;;4994562;28;20105;-85
2023/04/11 08:37:40;;;;;;;9.05;5.32;;;12.70;75.90;;;;;;4975213;28;20101;-85
2023/04/11 08:40:07;;;;;;;7.80;5.38;;;12.70;74.00;;;;;;4984688;28;20025;-85
2023/04/11 08:42:34;;;;;;;8.60;5.03;;;12.70;75.50;;;;;;4969701;28;20030;-85
2023/04/11 08:45:04;;;;;;;5.75;5.10;;;12.80;75.00;;;;;;4971904;28;20142;-85
2023/04/11 08:47:30;;;;;;;7.22;4.55;;;12.90;74.10;;;;;;4973661;28;20026;-85
2023/04/11 08:49:56;;;;;;;7.00;4.80;;;12.90;72.90;;;;;;4994337;28;20038;-85
2023/04/11 08:52:23;;;;;;;6.10;4.82;;;13.00;73.50;;;;;;4976540;28;20050;-85
2023/04/11 08:54:53;;;;;;;5.60;4.60;;;12.90;73.90;;;;;;4986129;28;20085;-85
2023/04/11 08:57:25;;;;;;;5.53;4.50;;;12.70;72.90;;;;;;4983219;28;20033;-84
2023/04/11 08:59:51;;;;;;;7.57;5.50;;;12.70;73.70;;;;;;4969632;28;20095;-84
2023/04/11 09:02:17;;;;;;;6.75;4.88;;;12.70;74.20;;;;;;4986490;28;20034;-85
2023/04/11 09:04:43;;;;;;;5.90;4.53;;;12.70;73.70;;;;;;4986985;28;20585;-86
2023/04/11 09:07:10;;;;;;;7.45;4.80;;;12.70;73.90;;;;;;4978047;28;20170;-85
2023/04/11 09:09:36;;;;;;;8.68;5.95;;;12.80;72.60;;;;;;4953389;28;20114;-85
2023/04/11 09:12:03;;;;;;;10.57;4.50;;;13.00;72.40;;;;;;4960417;28;20034;-85
2023/04/11 09:14:30;;;;;;;10.77;6.15;;;13.10;71.60;;;;;;4974233;28;20391;-85
2023/04/11 09:17:12;;;;;;;6.65;4.65;;;13.20;70.80;;;;;;4965951;28;20043;-85
2023/04/11 09:19:38;;;;;;;4.32;3.92;;;13.40;70.80;;;;;;4963640;28;20030;-84
2023/04/11 09:22:04;;;;;;;6.93;4.88;;;13.50;70.60;;;;;;4977482;28;20498;-85
2023/04/11 09:24:31;;;;;;;5.55;4.95;;;13.60;71.00;;;;;;4955272;28;20026;-84
2023/04/11 09:27:14;;;;;;;9.00;5.00;;;13.50;70.50;;;;;;4958498;28;20034;-86
2023/04/11 09:29:47;;;;;;;7.28;4.68;;;13.50;71.10;;;;;;4969419;28;20035;-84
2023/04/11 09:32:33;;;;;;;7.28;5.20;;;13.50;71.10;;;;;;4959718;28;20046;-86
2023/04/11 09:35:19;;;;;;;7.05;5.20;;;13.50;71.40;;;;;;4985139;28;20030;-85
2023/04/11 09:37:49;;;;;;;5.38;4.32;;;13.60;71.40;;;;;;4986711;28;20078;-85
2023/04/11 09:40:20;;;;;;;6.82;5.00;;;13.60;71.80;;;;;;4973878;28;20101;-84
2023/04/11 09:42:47;;;;;;;8.90;5.93;;;13.80;71.90;;;;;;4987471;28;20050;-85
2023/04/11 09:45:21;;;;;;;7.68;5.25;;;13.90;71.60;;;;;;4963532;28;20396;-85
2023/04/11 09:47:48;;;;;;;5.53;4.68;;;13.90;70.70;;;;;;4972463;28;20084;-85
2023/04/11 09:50:15;;;;;;;7.47;5.03;;;14.00;71.40;;;;;;4972376;28;20027;-85
2023/04/11 09:52:42;;;;;;;4.35;3.88;;;14.30;71.80;;;;;;4972933;28;20412;-85
2023/04/11 09:55:10;;;;;;;6.30;4.53;;;14.30;68.00;;;;;;4955530;28;20038;-86
2023/04/11 09:57:47;;;;;;;8.32;4.30;;;14.40;66.80;;;;;;4957015;28;20030;-86
2023/04/11 10:00:17;;;;;;;6.22;4.43;;;14.50;66.50;;;;;;4977987;28;20370;-86
2023/04/11 10:02:44;;;;;;;6.53;3.65;;;14.60;64.30;;;;;;4960250;28;20034;-86
2023/04/11 10:05:11;;;;;;;3.58;3.10;;;14.60;63.80;;;;;;4977609;28;20031;-85
2023/04/11 10:07:46;;;;;;;5.35;3.33;;;14.70;63.40;;;;;;4958968;28;20054;-86
2023/04/11 10:10:19;;;;;;;6.05;3.63;;;14.80;62.90;;;;;;4976336;28;20162;-86
2023/04/11 10:12:45;;;;;;;4.22;3.08;;;15.00;63.00;;;;;;4975193;28;20105;-86
2023/04/11 10:15:12;;;;;;;3.30;3.00;;;14.60;60.50;;;;;;4975695;28;20035;-86
2023/04/11 10:17:39;;;;;;;4.18;3.78;;;14.70;62.10;;;;;;4958400;28;20107;-86
2023/04/11 10:20:43;;;;;;;6.95;4.00;;;14.80;61.70;;;;;;4975602;28;20150;-87
2023/04/11 10:23:10;;;;;;;5.85;3.72;;;14.90;60.90;;;;;;4958474;28;20130;-86
2023/04/11 10:25:54;;;;;;;4.63;4.20;;;14.70;61.90;;;;;;4959075;28;20031;-85
2023/04/11 10:28:32;;;;;;;6.43;3.75;;;14.50;64.10;;;;;;4977390;28;20062;-86
2023/04/11 10:31:11;;;;;;;5.68;3.90;;;14.30;63.30;;;;;;4960317;28;20584;-86
2023/04/11 10:33:39;;;;;;;6.50;4.32;;;14.40;63.90;;;;;;4959808;28;20477;-86
2023/04/11 10:36:09;;;;;;;8.02;4.78;;;14.30;66.80;;;;;;4960297;28;20556;-87
2023/04/11 10:38:47;;;;;;;6.38;5.20;;;14.20;68.30;;;;;;4959765;28;20062;-86
2023/04/11 10:41:21;;;;;;;6.65;4.65;;;14.30;70.10;;;;;;4960122;28;20026;-87
2023/04/11 10:43:48;;;;;;;10.63;6.22;;;14.40;69.90;;;;;;4977325;28;20085;-86
2023/04/11 10:46:19;;;;;;;5.85;4.78;;;14.60;69.60;;;;;;4977522;28;20405;-86
2023/04/11 10:49:04;;;;;;;5.47;4.75;;;14.80;66.20;;;;;;4959881;28;20038;-87
2023/04/11 10:51:35;;;;;;;5.47;4.97;;;14.80;66.50;;;;;;4976931;28;20034;-86
2023/04/11 10:54:01;;;;;;;6.67;5.00;;;15.00;68.40;;;;;;4976860;28;20022;-86
2023/04/11 10:56:45;;;;;;;5.45;4.65;;;15.30;66.40;;;;;;4976899;28;20050;-86
2023/04/11 10:59:30;;;;;;;5.30;4.80;;;15.40;66.80;;;;;;4959675;28;20037;-86
2023/04/11 11:01:57;;;;;;;5.18;4.68;;;15.50;66.50;;;;;;4975749;28;20042;-87
2023/04/11 11:04:36;;;;;;;8.15;5.22;;;15.50;65.70;;;;;;4978876;28;20030;-87
2023/04/11 11:07:05;;;;;;;5.88;4.10;;;15.40;63.60;;;;;;4995890;28;20033;-87
2023/04/11 11:09:32;;;;;;;6.88;4.82;;;15.60;63.80;;;;;;4996125;28;20030;-86
2023/04/11 11:12:11;;;;;;;6.40;4.57;;;15.70;65.20;;;;;;4996283;28;20032;-86
2023/04/11 11:14:40;;;;;;;6.20;4.70;;;15.70;64.80;;;;;;4959510;28;20030;-86
2023/04/11 11:17:06;;;;;;;5.40;4.28;;;15.70;65.20;;;;;;4959509;28;20042;-86
2023/04/11 11:19:32;;;;;;;7.78;4.70;;;15.50;64.90;;;;;;4976793;28;20041;-86
2023/04/11 11:22:05;;;;;;;7.05;5.22;;;15.10;65.10;;;;;;4976727;28;20034;-86
2023/04/11 11:24:31;;;;;;;6.43;5.13;;;15.00;66.90;;;;;;4976914;28;20499;-86
2023/04/11 11:26:57;;;;;;;5.80;4.70;;;14.90;67.70;;;;;;4977273;28;20424;-86
2023/04/11 11:29:33;;;;;;;7.70;5.82;;;14.80;67.00;;;;;;4959207;28;20026;-86
2023/04/11 11:32:02;;;;;;;7.80;5.32;;;14.60;66.50;;;;;;4976378;28;20031;-86
2023/04/11 11:34:29;;;;;;;6.93;4.95;;;14.70;67.70;;;;;;4976314;28;20023;-86
2023/04/11 11:36:56;;;;;;;6.03;4.90;;;14.80;68.80;;;;;;4958637;28;20046;-86
2023/04/11 11:39:24;;;;;;;7.53;6.03;;;14.90;66.70;;;;;;4958596;28;20027;-86
2023/04/11 11:41:51;;;;;;;6.13;5.45;;;15.00;66.00;;;;;;4990433;28;20041;-87
2023/04/11 11:44:27;;;;;;;6.97;5.53;;;15.10;67.50;;;;;;4994923;28;20388;-87
2023/04/11 11:47:03;;;;;;;6.95;5.22;;;15.10;67.70;;;;;;4977351;28;20040;-86
2023/04/11 11:49:51;;;;;;;6.45;5.53;;;15.00;65.80;;;;;;4978072;28;20029;-86
2023/04/11 11:52:33;;;;;;;6.00;4.90;;;15.00;67.00;;;;;;4974036;28;20145;-86
2023/04/11 11:55:00;;;;;;;6.53;4.90;;;15.00;66.30;;;;;;4975771;28;20395;-87
2023/04/11 11:57:26;;;;;;;9.63;5.60;;;15.00;67.20;;;;;;4975733;28;20405;-86
2023/04/11 11:59:56;;;;;;;7.22;6.25;;;14.90;65.40;;;;;;4974571;28;20029;-88
2023/04/11 12:02:24;;;;;;;6.85;5.88;;;14.90;65.70;;;;;;4974157;28;20034;-87
2023/04/11 12:04:56;;;;;;;8.05;6.00;;;14.70;65.40;;;;;;4974945;28;20031;-86
2023/04/11 12:07:22;;;;;;;6.70;5.28;;;14.80;67.20;;;;;;4972063;28;20381;-85
2023/04/11 12:09:48;;;;;;;7.32;5.22;;;14.80;67.00;;;;;;4953989;28;20023;-86
2023/04/11 12:12:16;;;;;;;8.32;5.45;;;15.00;67.30;;;;;;4965415;28;20432;-87
2023/04/11 12:14:52;;;;;;;6.38;4.90;;;15.20;66.70;;;;;;4989353;28;20042;-87
2023/04/11 12:17:18;;;;;;;6.03;5.40;;;15.30;66.70;;;;;;4974243;28;20042;-86
2023/04/11 12:19:44;;;;;;;9.82;6.65;;;15.20;66.30;;;;;;4973706;28;20039;-86
2023/04/11 12:22:10;;;;;;;7.82;6.05;;;15.00;65.40;;;;;;4974154;28;20542;-86
2023/04/11 12:24:38;;;;;;;11.90;6.18;;;14.90;65.50;;;;;;4972443;28;20397;-86
2023/04/11 12:27:03;;;;;;;6.10;5.28;;;14.90;65.80;;;;;;4974420;28;20023;-86
2023/04/11 12:29:29;;;;;;;10.77;5.68;;;14.90;65.20;;;;;;4973612;28;20049;-87
2023/04/11 12:31:55;;;;;;;6.40;5.25;;;14.90;64.20;;;;;;4974046;28;20049;-87
2023/04/11 12:34:21;;;;;;;5.75;5.25;;;14.90;64.10;;;;;;4956036;28;20039;-87
2023/04/11 12:36:46;;;;;;;7.88;4.68;;;14.90;65.60;;;;;;4971955;28;20121;-87
2023/04/11 12:39:12;;;;;;;8.02;5.50;;;15.10;66.00;;;;;;4962349;28;20039;-87
2023/04/11 12:41:38;;;;;;;7.15;4.78;;;15.40;63.60;;;;;;4956917;28;20102;-87